createdAt,value
2019-04-20T00:00:06.729Z,11.88
2019-04-20T00:01:03.767Z,11.84
2019-04-20T00:02:08.298Z,11.75
2019-04-20T00:03:05.553Z,11.77
2019-04-20T00:04:03.199Z,11.72
2019-04-20T00:05:03.400Z,11.51
2019-04-20T00:06:03.532Z,11.36
2019-04-20T00:07:04.014Z,11.35
2019-04-20T00:08:08.915Z,11.44
2019-04-20T00:09:12.269Z,11.48
2019-04-20T00:10:13.079Z,11.57
2019-04-20T00:11:12.697Z,11.74
2019-04-20T00:12:12.701Z,11.72
2019-04-20T00:13:19.449Z,11.67
2019-04-20T00:14:13.438Z,11.67
2019-04-20T00:15:07.009Z,11.87
2019-04-20T00:16:06.086Z,11.78
2019-04-20T00:17:05.266Z,11.63
2019-04-20T00:18:08.092Z,11.62
2019-04-20T00:19:07.709Z,11.59
2019-04-20T00:20:13.344Z,11.59
2019-04-20T00:21:10.998Z,11.66
2019-04-20T00:22:10.565Z,11.69
2019-04-20T00:23:11.453Z,11.57
2019-04-20T00:24:13.461Z,11.39
2019-04-20T00:25:15.449Z,11.39
2019-04-20T00:26:17.370Z,11.33
2019-04-20T00:27:29.333Z,11.35
2019-04-20T00:28:24.036Z,11.28
2019-04-20T00:29:27.259Z,11.16
2019-04-20T00:30:32.484Z,11.23
2019-04-20T00:31:23.655Z,11.23
2019-04-20T00:32:19.763Z,11.28
2019-04-20T00:33:27.438Z,11.26
2019-04-20T00:34:18.242Z,10.83
2019-04-20T00:35:10.512Z,10.83
2019-04-20T00:36:09.806Z,10.66
2019-04-20T00:37:10.811Z,10.63
2019-04-20T00:38:09.854Z,10.60
2019-04-20T00:39:11.455Z,10.65
2019-04-20T00:40:10.164Z,10.63
2019-04-20T00:41:13.382Z,10.81
2019-04-20T00:42:14.492Z,10.63
2019-04-20T00:43:15.125Z,10.55
2019-04-20T00:44:17.030Z,10.49
2019-04-20T00:45:19.177Z,10.44
2019-04-20T00:46:22.214Z,10.42
2019-04-20T00:47:25.309Z,10.62
2019-04-20T00:48:22.471Z,10.39
2019-04-20T00:49:27.562Z,10.43
2019-04-20T00:50:28.263Z,10.36
2019-04-20T00:51:31.228Z,10.39
2019-04-20T00:52:44.838Z,10.36
2019-04-20T00:53:22.966Z,10.39
2019-04-20T00:54:13.651Z,10.36
2019-04-20T00:55:12.692Z,10.28
2019-04-20T00:56:11.976Z,10.39
2019-04-20T00:57:22.244Z,10.36
2019-04-20T00:58:20.116Z,10.36
2019-04-20T00:59:30.210Z,10.32
2019-04-20T01:00:35.726Z,10.32
2019-04-20T01:01:35.856Z,10.29
2019-04-20T01:02:29.893Z,10.18
2019-04-20T01:03:29.195Z,10.18
2019-04-20T01:04:38.863Z,10.10
2019-04-20T01:05:27.917Z,10.14
2019-04-20T01:06:34.191Z,10.28
2019-04-20T01:07:27.373Z,10.43
2019-04-20T01:08:17.099Z,10.39
2019-04-20T01:09:14.237Z,10.24
2019-04-20T01:10:15.181Z,10.10
2019-04-20T01:11:16.673Z,10.04
2019-04-20T01:12:21.604Z,10.20
2019-04-20T01:13:20.362Z,10.17
2019-04-20T01:14:22.382Z,10.18
2019-04-20T01:15:28.081Z,10.13
2019-04-20T01:16:29.282Z,9.96
2019-04-20T01:17:17.725Z,9.96
2019-04-20T01:18:16.652Z,9.92
2019-04-20T01:19:19.305Z,9.85
2019-04-20T01:20:16.329Z,9.91
2019-04-20T01:21:20.261Z,9.91
2019-04-20T01:22:22.198Z,9.91
2019-04-20T01:23:22.328Z,9.91
2019-04-20T01:24:24.902Z,10.02
2019-04-20T01:25:27.062Z,10.06
2019-04-20T01:26:21.449Z,9.99
2019-04-20T01:27:32.582Z,10.09
2019-04-20T01:28:37.480Z,9.89
2019-04-20T01:29:30.244Z,9.88
2019-04-20T01:30:28.459Z,9.75
2019-04-20T01:31:29.603Z,9.81
2019-04-20T01:32:31.151Z,9.89
2019-04-20T01:33:34.368Z,9.91
2019-04-20T01:34:37.893Z,9.92
2019-04-20T01:35:39.647Z,10.04
2019-04-20T01:36:42.994Z,9.95
2019-04-20T01:37:35.432Z,9.91
2019-04-20T01:38:34.345Z,9.75
2019-04-20T01:39:28.336Z,9.71
2019-04-20T01:40:23.202Z,9.63
2019-04-20T01:41:20.424Z,9.59
2019-04-20T01:42:21.385Z,9.56
2019-04-20T01:43:20.732Z,9.58
2019-04-20T01:44:26.143Z,9.48
2019-04-20T01:45:29.337Z,9.44
2019-04-20T01:46:26.391Z,9.45
2019-04-20T01:47:25.368Z,9.34
2019-04-20T01:48:28.672Z,9.40
2019-04-20T01:49:28.629Z,9.31
2019-04-20T01:50:28.469Z,9.31
2019-04-20T01:51:29.399Z,9.38
2019-04-20T01:52:28.800Z,9.37
2019-04-20T01:53:41.449Z,9.34
2019-04-20T01:54:38.545Z,9.31
2019-04-20T01:55:48.107Z,9.38
2019-04-20T01:56:38.483Z,9.19
2019-04-20T01:57:37.372Z,9.31
2019-04-20T01:59:02.761Z,9.37
2019-04-20T01:59:34.760Z,9.48
2019-04-20T02:00:30.738Z,9.19
2019-04-20T02:01:31.060Z,9.10
2019-04-20T02:02:27.805Z,9.06
2019-04-20T02:03:31.894Z,8.96
2019-04-20T02:04:32.316Z,8.94
2019-04-20T02:05:31.811Z,8.98
2019-04-20T02:06:28.621Z,9.04
2019-04-20T02:07:33.555Z,8.96
2019-04-20T02:08:29.465Z,9.04
2019-04-20T02:09:29.620Z,9.08
2019-04-20T02:10:37.061Z,8.88
2019-04-20T02:11:34.578Z,8.83
2019-04-20T02:12:31.137Z,8.86
2019-04-20T02:13:38.926Z,8.94
2019-04-20T02:14:40.270Z,8.85
2019-04-20T02:15:36.358Z,8.76
2019-04-20T02:16:35.708Z,8.67
2019-04-20T02:17:37.539Z,8.70
2019-04-20T02:18:41.609Z,8.68
2019-04-20T02:19:44.199Z,8.70
2019-04-20T02:20:48.693Z,8.63
2019-04-20T02:21:47.731Z,8.70
2019-04-20T02:22:46.467Z,8.64
2019-04-20T02:23:40.767Z,8.60
2019-04-20T02:24:32.005Z,8.52
2019-04-20T02:25:31.129Z,8.58
2019-04-20T02:26:30.207Z,8.55
2019-04-20T02:27:36.893Z,8.67
2019-04-20T02:28:55.397Z,8.61
2019-04-20T02:29:50.952Z,8.65
2019-04-20T02:31:14.883Z,8.64
2019-04-20T02:32:10.085Z,8.60
2019-04-20T02:34:03.817Z,8.70
2019-04-20T02:34:59.839Z,8.57
2019-04-20T02:36:10.979Z,8.60
2019-04-20T02:37:14.247Z,8.67
2019-04-20T02:38:18.305Z,8.63
2019-04-20T02:39:27.225Z,8.57
2019-04-20T02:42:07.946Z,8.57
2019-04-20T02:43:09.422Z,8.68
2019-04-20T02:45:58.060Z,8.55
2019-04-20T02:49:29.732Z,8.57
2019-04-20T02:50:07.496Z,8.70
2019-04-20T02:51:08.917Z,8.73
2019-04-20T02:53:11.397Z,8.67
2019-04-20T02:54:18.819Z,8.54
2019-04-20T02:55:09.296Z,8.63
2019-04-20T02:57:14.358Z,8.49
2019-04-20T02:58:12.456Z,8.42
2019-04-20T03:01:00.184Z,8.34
2019-04-20T03:01:55.208Z,8.25
2019-04-20T03:02:53.364Z,8.18
2019-04-20T03:03:44.958Z,8.22
2019-04-20T03:04:45.902Z,8.18
2019-04-20T03:05:51.701Z,8.22
2019-04-20T03:07:01.050Z,8.12
2019-04-20T03:07:57.460Z,8.06
2019-04-20T03:09:06.344Z,8.02
2019-04-20T03:09:58.650Z,8.13
2019-04-20T03:11:09.290Z,8.10
2019-04-20T03:12:04.826Z,8.17
2019-04-20T03:13:04.040Z,8.20
2019-04-20T03:14:00.269Z,8.10
2019-04-20T03:14:57.437Z,8.12
2019-04-20T03:16:01.896Z,8.04
2019-04-20T03:17:03.310Z,8.04
2019-04-20T03:18:03.445Z,7.99
2019-04-20T03:18:58.441Z,7.92
2019-04-20T03:19:57.264Z,7.91
2019-04-20T03:21:08.428Z,7.85
2019-04-20T03:22:09.542Z,7.91
2019-04-20T03:24:16.059Z,7.82
2019-04-20T03:25:07.990Z,7.82
2019-04-20T03:26:05.381Z,7.77
2019-04-20T03:26:59.515Z,7.71
2019-04-20T03:28:05.335Z,7.84
2019-04-20T03:29:03.977Z,7.79
2019-04-20T03:30:04.190Z,7.81
2019-04-20T03:34:38.311Z,7.76
2019-04-20T03:35:15.523Z,7.71
2019-04-20T03:36:18.366Z,7.84
2019-04-20T03:37:15.639Z,7.85
2019-04-20T03:38:04.637Z,7.88
2019-04-20T03:39:01.437Z,7.96
2019-04-20T03:40:01.521Z,7.81
2019-04-20T03:40:59.105Z,7.95
2019-04-20T03:41:50.282Z,7.91
2019-04-20T03:42:48.569Z,7.89
2019-04-20T03:43:45.748Z,7.89
2019-04-20T03:44:52.988Z,7.86
2019-04-20T03:45:54.294Z,7.84
2019-04-20T03:46:53.103Z,7.89
2019-04-20T03:47:57.101Z,7.77
2019-04-20T03:49:04.411Z,7.88
2019-04-20T03:50:16.742Z,7.82
2019-04-20T03:51:08.973Z,7.77
2019-04-20T03:52:09.384Z,7.91
2019-04-20T03:53:09.906Z,7.84
2019-04-20T03:54:02.681Z,7.82
2019-04-20T03:55:07.542Z,7.74
2019-04-20T03:56:03.752Z,7.63
2019-04-20T03:57:13.946Z,7.63
2019-04-20T03:58:10.235Z,7.79
2019-04-20T03:59:07.676Z,7.79
2019-04-20T04:00:15.142Z,7.77
2019-04-20T04:00:59.714Z,7.76
2019-04-20T04:02:22.511Z,7.81
2019-04-20T04:03:26.212Z,7.69
2019-04-20T04:04:10.640Z,7.71
2019-04-20T04:05:08.929Z,7.55
2019-04-20T04:06:02.867Z,7.50
2019-04-20T04:06:55.925Z,7.39
2019-04-20T04:08:03.170Z,7.44
2019-04-20T04:09:02.823Z,7.27
2019-04-20T04:10:09.830Z,7.42
2019-04-20T04:11:12.387Z,7.52
2019-04-20T04:12:06.607Z,7.47
2019-04-20T04:12:53.033Z,7.45
2019-04-20T04:13:52.448Z,7.47
2019-04-20T04:14:51.474Z,7.39
2019-04-20T04:15:57.470Z,7.32
2019-04-20T04:16:57.033Z,7.42
2019-04-20T04:17:53.108Z,7.41
2019-04-20T04:19:01.443Z,7.32
2019-04-20T04:19:59.970Z,7.32
2019-04-20T04:21:01.086Z,7.37
2019-04-20T04:22:08.625Z,7.42
2019-04-20T04:23:09.983Z,7.51
2019-04-20T04:24:07.400Z,7.44
2019-04-20T04:25:07.536Z,7.41
2019-04-20T04:26:17.275Z,7.44
2019-04-20T04:27:05.894Z,7.33
2019-04-20T04:28:10.812Z,7.37
2019-04-20T04:29:19.304Z,7.36
2019-04-20T04:30:09.496Z,7.37
2019-04-20T04:31:12.198Z,7.27
2019-04-20T04:32:21.188Z,7.19
2019-04-20T04:33:42.781Z,7.24
2019-04-20T04:34:12.420Z,7.08
2019-04-20T04:35:09.188Z,7.09
2019-04-20T04:36:15.401Z,7.08
2019-04-20T04:37:18.671Z,6.99
2019-04-20T04:38:15.286Z,7.00
2019-04-20T04:39:20.982Z,7.12
2019-04-20T04:40:27.944Z,7.01
2019-04-20T04:42:39.163Z,7.04
2019-04-20T04:43:19.721Z,7.15
2019-04-20T04:44:11.064Z,7.16
2019-04-20T04:45:04.897Z,7.09
2019-04-20T04:45:57.606Z,7.07
2019-04-20T04:47:00.203Z,7.04
2019-04-20T04:47:59.806Z,7.11
2019-04-20T04:49:05.325Z,7.18
2019-04-20T04:50:09.167Z,7.14
2019-04-20T04:51:07.066Z,7.15
2019-04-20T04:52:06.328Z,7.19
2019-04-20T04:53:09.050Z,7.24
2019-04-20T04:54:13.096Z,7.33
2019-04-20T04:55:12.160Z,7.41
2019-04-20T04:56:07.376Z,7.62
2019-04-20T04:57:01.213Z,7.95
2019-04-20T04:58:00.206Z,8.00
2019-04-20T04:59:00.265Z,8.12
2019-04-20T04:59:59.520Z,8.22
2019-04-20T05:01:05.638Z,8.24
2019-04-20T05:02:02.130Z,8.49
2019-04-20T05:03:03.859Z,8.64
2019-04-20T05:04:21.051Z,8.70
2019-04-20T05:05:23.797Z,8.70
2019-04-20T05:06:19.701Z,8.76
2019-04-20T05:07:16.057Z,8.76
2019-04-20T05:08:12.786Z,8.68
2019-04-20T05:09:06.074Z,8.85
2019-04-20T05:10:05.561Z,8.96
2019-04-20T05:11:02.737Z,9.10
2019-04-20T05:12:09.839Z,9.32
2019-04-20T05:13:04.959Z,9.52
2019-04-20T05:14:07.504Z,9.50
2019-04-20T05:15:13.340Z,9.56
2019-04-20T05:16:18.920Z,9.50
2019-04-20T05:17:20.638Z,9.40
2019-04-20T05:18:27.612Z,9.40
2019-04-20T05:19:41.299Z,9.41
2019-04-20T05:20:21.978Z,9.38
2019-04-20T05:21:25.322Z,9.30
2019-04-20T05:22:26.180Z,9.26
2019-04-20T05:23:20.779Z,9.38
2019-04-20T05:24:22.956Z,9.62
2019-04-20T05:25:29.749Z,9.88
2019-04-20T05:26:26.820Z,10.28
2019-04-20T05:28:20.701Z,10.84
2019-04-20T05:29:15.469Z,11.09
2019-04-20T05:30:07.824Z,11.21
2019-04-20T05:31:07.946Z,11.31
2019-04-20T05:32:13.080Z,11.31
2019-04-20T05:33:16.807Z,11.20
2019-04-20T05:34:33.250Z,11.30
2019-04-20T05:35:37.848Z,11.62
2019-04-20T05:36:29.780Z,12.01
2019-04-20T05:37:34.363Z,12.16
2019-04-20T05:38:35.457Z,12.36
2019-04-20T05:39:32.658Z,12.29
2019-04-20T05:40:35.203Z,12.30
2019-04-20T05:41:26.824Z,12.38
2019-04-20T05:42:30.298Z,12.41
2019-04-20T05:43:29.209Z,12.43
2019-04-20T05:44:22.084Z,12.70
2019-04-20T05:45:25.200Z,13.44
2019-04-20T05:46:32.048Z,13.80
2019-04-20T05:47:29.809Z,14.09
2019-04-20T05:48:24.757Z,14.27
2019-04-20T05:49:30.309Z,14.54
2019-04-20T05:50:31.587Z,14.34
2019-04-20T05:51:36.458Z,14.20
2019-04-20T05:52:43.836Z,14.13
2019-04-20T05:53:34.269Z,14.23
2019-04-20T05:54:32.313Z,14.66
2019-04-20T05:55:35.967Z,14.87
2019-04-20T05:56:35.301Z,14.71
2019-04-20T05:57:38.905Z,15.01
2019-04-20T05:58:32.775Z,15.07
2019-04-20T05:59:37.435Z,14.75
2019-04-20T06:00:39.021Z,14.12
2019-04-20T06:01:40.817Z,13.81
2019-04-20T06:02:33.258Z,13.62
2019-04-20T06:03:33.560Z,13.68
2019-04-20T06:04:46.974Z,13.83
2019-04-20T06:05:36.440Z,13.69
2019-04-20T06:06:37.978Z,13.51
2019-04-20T06:07:35.960Z,13.41
2019-04-20T06:08:51.201Z,13.24
2019-04-20T06:09:39.789Z,13.04
2019-04-20T06:10:41.280Z,12.99
2019-04-20T06:11:50.096Z,13.14
2019-04-20T06:12:38.100Z,13.29
2019-04-20T06:13:29.998Z,13.24
2019-04-20T06:14:31.607Z,13.69
2019-04-20T06:15:40.732Z,13.69
2019-04-20T06:16:44.075Z,13.68
2019-04-20T06:17:40.024Z,13.91
2019-04-20T06:18:32.309Z,14.27
2019-04-20T06:19:35.485Z,14.53
2019-04-20T06:20:41.211Z,14.57
2019-04-20T06:21:38.036Z,14.42
2019-04-20T06:22:57.443Z,14.52
2019-04-20T06:23:47.107Z,14.57
2019-04-20T06:24:44.886Z,14.74
2019-04-20T06:25:45.919Z,14.63
2019-04-20T06:26:49.034Z,14.31
2019-04-20T06:27:40.999Z,14.08
2019-04-20T06:28:37.892Z,13.94
2019-04-20T06:29:43.980Z,14.02
2019-04-20T06:30:33.176Z,14.17
2019-04-20T06:31:40.667Z,14.24
2019-04-20T06:32:44.325Z,14.38
2019-04-20T06:33:52.039Z,14.23
2019-04-20T06:34:36.631Z,14.29
2019-04-20T06:36:01.011Z,14.56
2019-04-20T06:37:48.632Z,14.98
2019-04-20T06:39:44.678Z,15.00
2019-04-20T06:42:02.207Z,14.64
2019-04-20T06:42:39.696Z,14.74
2019-04-20T06:43:45.842Z,15.30
2019-04-20T06:44:41.294Z,15.80
2019-04-20T06:45:53.442Z,15.78
2019-04-20T06:46:54.877Z,16.36
2019-04-20T06:47:47.076Z,16.66
2019-04-20T06:48:49.962Z,16.70
2019-04-20T06:49:46.882Z,16.81
2019-04-20T06:50:41.561Z,17.03
2019-04-20T06:51:47.587Z,17.42
2019-04-20T06:52:36.802Z,17.65
2019-04-20T06:53:46.918Z,17.22
2019-04-20T06:54:43.441Z,17.24
2019-04-20T06:55:48.593Z,16.85
2019-04-20T06:56:48.138Z,16.63
2019-04-20T06:57:51.656Z,17.14
2019-04-20T06:59:04.425Z,17.71
2019-04-20T06:59:48.926Z,17.42
2019-04-20T07:00:46.650Z,16.87
2019-04-20T07:01:56.890Z,16.63
2019-04-20T07:04:06.665Z,17.70
2019-04-20T07:04:47.492Z,17.63
2019-04-20T07:05:44.728Z,18.21
2019-04-20T07:08:56.955Z,17.91
2019-04-20T07:10:06.804Z,17.51
2019-04-20T07:10:51.727Z,17.38
2019-04-20T07:11:46.456Z,17.99
2019-04-20T07:12:45.070Z,18.19
2019-04-20T07:13:39.459Z,18.35
2019-04-20T07:14:41.535Z,18.34
2019-04-20T07:15:42.779Z,18.53
2019-04-20T07:16:44.758Z,18.60
2019-04-20T07:17:54.713Z,18.91
2019-04-20T07:18:53.201Z,18.84
2019-04-20T07:19:44.480Z,19.06
2019-04-20T07:20:55.419Z,19.79
2019-04-20T07:22:07.227Z,19.21
2019-04-20T07:22:55.955Z,18.32
2019-04-20T07:23:55.872Z,18.56
2019-04-20T07:26:06.734Z,17.77
2019-04-20T07:26:49.270Z,17.95
2019-04-20T07:27:56.478Z,18.42
2019-04-20T07:28:54.175Z,18.60
2019-04-20T07:29:51.913Z,18.84
2019-04-20T07:30:50.264Z,18.96
2019-04-20T07:31:49.946Z,18.38
2019-04-20T07:34:51.677Z,17.86
2019-04-20T07:35:53.419Z,18.10
2019-04-20T07:36:57.427Z,18.20
2019-04-20T07:38:56.799Z,18.64
2019-04-20T07:39:53.960Z,18.72
2019-04-20T07:40:49.984Z,18.62
2019-04-20T07:41:56.954Z,18.59
2019-04-20T07:42:55.267Z,18.93
2019-04-20T07:44:04.438Z,19.02
2019-04-20T07:45:55.879Z,18.57
2019-04-20T07:47:01.822Z,18.65
2019-04-20T07:48:01.441Z,18.60
2019-04-20T07:48:58.039Z,18.29
2019-04-20T07:49:49.818Z,18.31
2019-04-20T07:50:44.893Z,18.53
2019-04-20T07:51:39.097Z,18.47
2019-04-20T07:52:46.170Z,18.51
2019-04-20T07:54:07.682Z,18.29
2019-04-20T07:55:19.212Z,18.28
2019-04-20T07:56:02.426Z,18.26
2019-04-20T07:56:53.740Z,18.21
2019-04-20T07:57:52.858Z,18.51
2019-04-20T07:58:47.489Z,18.90
2019-04-20T07:59:55.821Z,19.42
2019-04-20T08:01:04.168Z,19.86
2019-04-20T08:02:08.216Z,20.07
2019-04-20T08:03:03.031Z,20.38
2019-04-20T08:04:05.644Z,20.58
2019-04-20T08:04:56.339Z,20.25
2019-04-20T08:05:48.510Z,19.78
2019-04-20T08:06:45.664Z,19.76
2019-04-20T08:07:49.595Z,19.90
2019-04-20T08:08:53.093Z,20.31
2019-04-20T08:09:46.636Z,20.61
2019-04-20T08:10:53.965Z,20.48
2019-04-20T08:12:07.808Z,20.48
2019-04-20T08:13:02.239Z,20.81
2019-04-20T08:13:59.021Z,20.57
2019-04-20T08:15:05.035Z,20.34
2019-04-20T08:16:00.780Z,20.26
2019-04-20T08:17:14.418Z,20.66
2019-04-20T08:18:02.445Z,21.19
2019-04-20T08:18:59.775Z,21.46
2019-04-20T08:20:00.137Z,21.96
2019-04-20T08:21:16.701Z,21.83
2019-04-20T08:21:58.829Z,21.52
2019-04-20T08:22:58.595Z,21.64
2019-04-20T08:24:02.499Z,21.73
2019-04-20T08:24:59.248Z,21.94
2019-04-20T08:25:54.312Z,22.24
2019-04-20T08:26:49.676Z,21.66
2019-04-20T08:27:42.315Z,21.48
2019-04-20T08:28:46.776Z,21.67
2019-04-20T08:29:53.002Z,21.91
2019-04-20T08:31:02.350Z,22.56
2019-04-20T08:32:04.419Z,22.72
2019-04-20T08:32:58.535Z,22.64
2019-04-20T08:34:15.272Z,22.52
2019-04-20T08:35:05.069Z,22.84
2019-04-20T08:36:04.680Z,23.49
2019-04-20T08:37:01.391Z,23.50
2019-04-20T08:38:35.005Z,24.04
2019-04-20T08:40:07.174Z,24.84
2019-04-20T08:40:59.622Z,24.75
2019-04-20T08:42:06.340Z,24.83
2019-04-20T08:43:17.253Z,25.02
2019-04-20T08:44:09.441Z,25.05
2019-04-20T08:46:05.309Z,24.87
2019-04-20T08:47:12.255Z,24.86
2019-04-20T08:48:14.081Z,24.75
2019-04-20T08:49:11.328Z,24.98
2019-04-20T08:50:12.074Z,24.45
2019-04-20T08:51:06.073Z,24.30
2019-04-20T08:52:22.995Z,24.34
2019-04-20T08:53:16.042Z,24.36
2019-04-20T08:54:03.389Z,24.46
2019-04-20T08:55:04.918Z,24.64
2019-04-20T08:56:00.024Z,24.67
2019-04-20T08:56:52.253Z,24.83
2019-04-20T08:57:46.791Z,24.86
2019-04-20T08:58:46.106Z,24.29
2019-04-20T08:59:48.229Z,24.16
2019-04-20T09:00:53.614Z,24.52
2019-04-20T09:01:46.831Z,24.48
2019-04-20T09:02:52.143Z,24.71
2019-04-20T09:03:58.911Z,24.45
2019-04-20T09:04:55.225Z,24.48
2019-04-20T09:06:00.514Z,24.55
2019-04-20T09:07:02.324Z,24.83
2019-04-20T09:08:00.498Z,24.75
2019-04-20T09:09:07.648Z,24.89
2019-04-20T09:10:14.369Z,25.02
2019-04-20T09:11:08.282Z,24.93
2019-04-20T09:12:05.843Z,24.89
2019-04-20T09:13:02.343Z,24.89
2019-04-20T09:13:55.196Z,24.64
2019-04-20T09:14:49.094Z,24.46
2019-04-20T09:15:47.215Z,24.70
2019-04-20T09:16:54.559Z,24.90
2019-04-20T09:17:56.040Z,24.66
2019-04-20T09:18:58.964Z,23.96
2019-04-20T09:19:58.625Z,23.97
2019-04-20T09:20:58.925Z,24.06
2019-04-20T09:21:55.161Z,23.99
2019-04-20T09:23:06.958Z,24.09
2019-04-20T09:25:25.064Z,23.52
2019-04-20T09:26:10.077Z,23.32
2019-04-20T09:27:05.604Z,23.31
2019-04-20T09:27:59.684Z,22.86
2019-04-20T09:29:11.794Z,22.96
2019-04-20T09:30:09.138Z,23.26
2019-04-20T09:31:09.499Z,24.05
2019-04-20T09:32:11.390Z,24.30
2019-04-20T09:33:14.315Z,23.96
2019-04-20T09:34:06.510Z,24.14
2019-04-20T09:35:13.584Z,24.33
2019-04-20T09:36:10.015Z,24.24
2019-04-20T09:37:16.808Z,23.97
2019-04-20T09:38:11.826Z,24.11
2019-04-20T09:39:06.186Z,24.05
2019-04-20T09:40:15.066Z,24.21
2019-04-20T09:41:10.055Z,25.01
2019-04-20T09:42:00.478Z,24.99
2019-04-20T09:42:54.290Z,24.70
2019-04-20T09:43:52.576Z,23.79
2019-04-20T09:44:55.952Z,24.04
2019-04-20T09:46:00.033Z,24.24
2019-04-20T09:46:59.423Z,24.02
2019-04-20T09:47:57.042Z,24.34
2019-04-20T09:48:59.296Z,24.80
2019-04-20T09:50:08.967Z,24.36
2019-04-20T09:51:16.961Z,24.41
2019-04-20T09:52:11.149Z,24.89
2019-04-20T09:53:10.075Z,24.93
2019-04-20T09:54:17.071Z,25.24
2019-04-20T09:55:10.765Z,24.89
2019-04-20T09:56:12.983Z,24.51
2019-04-20T09:57:14.989Z,24.53
2019-04-20T09:58:08.435Z,24.71
2019-04-20T09:59:16.364Z,24.87
2019-04-20T10:00:15.517Z,25.08
2019-04-20T10:01:13.291Z,25.29
2019-04-20T10:02:06.633Z,25.39
2019-04-20T10:02:58.222Z,25.38
2019-04-20T10:03:57.083Z,24.52
2019-04-20T10:04:57.758Z,24.24
2019-04-20T10:05:57.476Z,24.18
2019-04-20T10:07:00.022Z,24.19
2019-04-20T10:08:03.350Z,24.08
2019-04-20T10:09:02.846Z,23.77
2019-04-20T10:09:58.255Z,23.69
2019-04-20T10:10:57.454Z,23.92
2019-04-20T10:11:59.568Z,23.81
2019-04-20T10:12:58.408Z,24.45
2019-04-20T10:13:59.298Z,23.90
2019-04-20T10:15:05.092Z,24.42
2019-04-20T10:15:59.801Z,24.42
2019-04-20T10:17:00.284Z,24.44
2019-04-20T10:17:59.584Z,24.66
2019-04-20T10:18:58.852Z,24.87
2019-04-20T10:20:02.558Z,25.02
2019-04-20T10:21:01.978Z,24.53
2019-04-20T10:22:00.426Z,24.66
2019-04-20T10:23:00.603Z,25.02
2019-04-20T10:24:00.766Z,24.51
2019-04-20T10:25:00.874Z,24.04
2019-04-20T10:26:00.724Z,24.30
2019-04-20T10:27:01.226Z,24.27
2019-04-20T10:28:01.347Z,24.08
2019-04-20T10:29:01.625Z,24.15
2019-04-20T10:30:04.731Z,24.48
2019-04-20T10:31:02.289Z,24.08
2019-04-20T10:32:05.714Z,23.77
2019-04-20T10:33:03.502Z,23.26
2019-04-20T10:34:03.930Z,23.67
2019-04-20T10:35:02.555Z,24.09
2019-04-20T10:36:03.553Z,23.78
2019-04-20T10:37:03.881Z,23.75
2019-04-20T10:38:03.230Z,23.71
2019-04-20T10:39:02.424Z,23.92
2019-04-20T10:40:04.746Z,24.05
2019-04-20T10:41:11.674Z,24.51
2019-04-20T10:42:06.058Z,24.98
2019-04-20T10:43:04.521Z,24.49
2019-04-20T10:44:03.229Z,24.67
2019-04-20T10:45:04.694Z,24.86
2019-04-20T10:46:04.714Z,24.98
2019-04-20T10:47:05.013Z,24.46
2019-04-20T10:48:05.428Z,23.97
2019-04-20T10:49:04.877Z,24.08
2019-04-20T10:50:05.316Z,24.30
2019-04-20T10:51:05.233Z,24.30
2019-04-20T10:52:05.477Z,24.14
2019-04-20T10:53:05.760Z,24.59
2019-04-20T10:54:04.992Z,24.86
2019-04-20T10:55:06.156Z,25.02
2019-04-20T10:56:27.530Z,25.20
2019-04-20T10:57:05.876Z,24.98
2019-04-20T10:58:07.319Z,24.98
2019-04-20T10:59:07.729Z,25.23
2019-04-20T11:00:06.144Z,24.63
2019-04-20T11:01:07.413Z,24.21
2019-04-20T11:02:07.796Z,24.16
2019-04-20T11:03:07.986Z,23.97
2019-04-20T11:04:08.445Z,24.49
2019-04-20T11:05:08.556Z,24.61
2019-04-20T11:06:07.137Z,24.61
2019-04-20T11:07:08.306Z,23.97
2019-04-20T11:08:08.505Z,24.16
2019-04-20T11:09:08.915Z,24.36
2019-04-20T11:10:17.807Z,24.60
2019-04-20T11:11:16.646Z,24.63
2019-04-20T11:12:10.515Z,24.93
2019-04-20T11:13:09.620Z,25.12
2019-04-20T11:14:16.328Z,24.86
2019-04-20T11:15:10.638Z,24.83
2019-04-20T11:16:08.788Z,24.30
2019-04-20T11:17:09.038Z,24.11
2019-04-20T11:18:11.213Z,24.02
2019-04-20T11:19:09.506Z,24.56
2019-04-20T11:20:10.607Z,25.05
2019-04-20T11:21:11.273Z,24.59
2019-04-20T11:22:10.451Z,24.52
2019-04-20T11:23:11.832Z,24.48
2019-04-20T11:24:10.348Z,24.86
2019-04-20T11:25:10.537Z,24.86
2019-04-20T11:26:10.706Z,24.83
2019-04-20T11:27:12.046Z,25.08
2019-04-20T11:28:12.344Z,25.07
2019-04-20T11:29:11.209Z,24.45
2019-04-20T11:30:12.105Z,24.05
2019-04-20T11:31:12.612Z,24.29
2019-04-20T11:32:13.462Z,24.30
2019-04-20T11:33:14.053Z,24.98
2019-04-20T11:34:15.025Z,25.45
2019-04-20T11:35:21.293Z,25.67
2019-04-20T11:36:14.943Z,25.66
2019-04-20T11:37:13.026Z,25.61
2019-04-20T11:38:15.431Z,25.63
2019-04-20T11:39:37.017Z,25.71
2019-04-20T11:40:13.031Z,25.36
2019-04-20T11:41:19.969Z,25.46
2019-04-20T11:42:15.406Z,25.63
2019-04-20T11:43:13.666Z,25.48
2019-04-20T11:44:15.751Z,25.36
2019-04-20T11:45:14.991Z,25.51
2019-04-20T11:46:14.567Z,25.51
2019-04-20T11:47:14.747Z,24.77
2019-04-20T11:48:15.820Z,24.82
2019-04-20T11:49:15.675Z,25.31
2019-04-20T11:50:15.626Z,25.29
2019-04-20T11:51:15.817Z,25.85
2019-04-20T11:52:18.294Z,26.04
2019-04-20T11:53:17.479Z,25.91
2019-04-20T11:54:16.619Z,25.66
2019-04-20T11:55:16.035Z,25.51
2019-04-20T11:56:21.292Z,25.53
2019-04-20T11:57:17.497Z,25.72
2019-04-20T11:58:19.612Z,25.98
2019-04-20T11:59:16.975Z,26.03
2019-04-20T12:00:17.264Z,26.19
2019-04-20T12:01:20.823Z,26.20
2019-04-20T12:02:25.361Z,25.64
2019-04-20T12:03:24.767Z,25.71
2019-04-20T12:04:34.005Z,26.01
2019-04-20T12:05:28.323Z,25.38
2019-04-20T12:06:21.074Z,24.99
2019-04-20T12:07:19.231Z,25.53
2019-04-20T12:08:18.696Z,25.82
2019-04-20T12:09:19.056Z,26.16
2019-04-20T12:10:22.208Z,25.49
2019-04-20T12:11:31.959Z,25.72
2019-04-20T12:12:30.091Z,25.57
2019-04-20T12:13:21.062Z,25.79
2019-04-20T12:14:20.674Z,25.38
2019-04-20T12:15:19.442Z,25.07
2019-04-20T12:16:19.637Z,25.20
2019-04-20T12:17:19.808Z,25.08
2019-04-20T12:18:20.026Z,25.12
2019-04-20T12:19:20.745Z,25.74
2019-04-20T12:20:20.909Z,25.66
2019-04-20T12:21:21.092Z,26.09
2019-04-20T12:22:21.520Z,26.56
2019-04-20T12:23:22.351Z,26.61
2019-04-20T12:24:22.665Z,26.24
2019-04-20T12:25:21.132Z,26.16
2019-04-20T12:26:22.631Z,26.41
2019-04-20T12:27:22.779Z,26.24
2019-04-20T12:28:22.056Z,25.76
2019-04-20T12:29:23.793Z,25.89
2019-04-20T12:30:23.908Z,25.53
2019-04-20T12:31:24.697Z,25.74
2019-04-20T12:32:29.597Z,26.08
2019-04-20T12:33:24.473Z,26.01
2019-04-20T12:34:22.799Z,25.66
2019-04-20T12:35:24.244Z,25.57
2019-04-20T12:36:23.977Z,25.82
2019-04-20T12:37:25.087Z,25.67
2019-04-20T12:38:23.546Z,25.24
2019-04-20T12:39:24.903Z,26.04
2019-04-20T12:40:24.028Z,25.85
2019-04-20T12:41:34.419Z,25.97
2019-04-20T12:42:26.310Z,25.98
2019-04-20T12:43:25.573Z,26.34
2019-04-20T12:44:25.822Z,25.45
2019-04-20T12:45:25.937Z,25.31
2019-04-20T12:46:26.753Z,25.71
2019-04-20T12:47:25.770Z,25.79
2019-04-20T12:48:25.922Z,25.67
2019-04-20T12:49:25.878Z,26.36
2019-04-20T12:50:25.730Z,26.24
2019-04-20T12:51:33.501Z,25.91
2019-04-20T12:52:28.294Z,26.13
2019-04-20T12:53:26.533Z,26.42
2019-04-20T12:54:27.286Z,26.00
2019-04-20T12:55:26.874Z,25.93
2019-04-20T12:56:26.693Z,25.91
2019-04-20T12:57:26.920Z,25.66
2019-04-20T12:58:28.901Z,25.45
2019-04-20T12:59:27.867Z,25.63
2019-04-20T13:00:27.761Z,25.56
2019-04-20T13:01:30.138Z,25.86
2019-04-20T13:02:29.213Z,26.13
2019-04-20T13:03:27.997Z,25.74
2019-04-20T13:04:28.231Z,25.85
2019-04-20T13:05:29.665Z,25.53
2019-04-20T13:06:29.929Z,25.45
2019-04-20T13:07:31.589Z,25.35
2019-04-20T13:08:36.921Z,25.54
2019-04-20T13:09:32.512Z,26.32
2019-04-20T13:10:29.581Z,26.21
2019-04-20T13:11:32.056Z,25.89
2019-04-20T13:12:32.390Z,25.31
2019-04-20T13:13:30.436Z,25.23
2019-04-20T13:14:30.652Z,25.14
2019-04-20T13:15:30.122Z,25.07
2019-04-20T13:16:32.265Z,25.09
2019-04-20T13:17:30.557Z,25.45
2019-04-20T13:18:32.908Z,25.36
2019-04-20T13:19:31.200Z,25.60
2019-04-20T13:20:32.077Z,26.08
2019-04-20T13:21:52.792Z,26.11
2019-04-20T13:22:31.627Z,26.19
2019-04-20T13:23:33.093Z,26.12
2019-04-20T13:24:32.404Z,26.00
2019-04-20T13:25:32.901Z,25.74
2019-04-20T13:26:33.211Z,25.81
2019-04-20T13:27:32.502Z,26.00
2019-04-20T13:28:32.899Z,25.44
2019-04-20T13:29:35.113Z,25.14
2019-04-20T13:30:33.060Z,25.66
2019-04-20T13:31:33.765Z,25.86
2019-04-20T13:32:34.018Z,26.09
2019-04-20T13:33:33.622Z,25.89